Time;durP1;ratioP1;P1;durP2;ratioP2;P2;SDS_P1;SDS_P2;PMS_P1;PMS_P2;Temp;Humidity;BMP_temperature;BMP_pressure;BME280_temperature;BME280_humidity;BME280_pressure;Samples;Min_cycle;Max_cycle;Signal;HPM_P1;HPM_P2
2024/02/04 00:00:25;;;;;;;;;4.00;3.00;;;;;-144.24;100.00;84568.16;5017597;22;55762;-72
2024/02/04 00:02:50;;;;;;;;;2.67;2.67;;;;;-144.24;100.00;84653.09;5090929;22;58833;-71
2024/02/04 00:05:16;;;;;;;;;3.00;2.00;;;;;-144.24;100.00;84580.28;5057723;28;45319;-71
2024/02/04 00:07:41;;;;;;;;;4.00;2.67;;;;;-144.24;100.00;84744.13;5075770;27;45352;-72
2024/02/04 00:10:07;;;;;;;;;3.00;1.67;;;;;-144.24;100.00;84869.50;5082557;27;51668;-73
2024/02/04 00:12:32;;;;;;;;;3.00;2.00;;;;;-144.24;100.00;84879.63;5082542;27;47119;-72
2024/02/04 00:14:58;;;;;;;;;1.00;1.00;;;;;-144.24;100.00;85199.19;5080058;27;45374;-74
2024/02/04 00:17:23;;;;;;;;;2.00;2.00;;;;;-144.24;100.00;85373.16;5079632;27;52002;-72
2024/02/04 00:19:48;;;;;;;;;5.00;2.00;;;;;-144.24;100.00;85437.91;5073154;28;45523;-72
2024/02/04 00:22:16;;;;;;;;;2.00;2.00;;;;;-144.24;100.00;85646.25;5065458;28;61766;-71
2024/02/04 00:24:42;;;;;;;;;2.67;2.00;;;;;-144.24;100.00;85698.84;5072935;27;45438;-72
2024/02/04 00:27:07;;;;;;;;;2.67;2.67;;;;;-144.24;100.00;85812.13;5071474;27;56472;-71
2024/02/04 00:29:33;;;;;;;;;4.00;2.00;;;;;-144.24;100.00;85787.84;5066063;28;61140;-72
2024/02/04 00:31:58;;;;;;;;;6.67;2.00;;;;;-144.24;100.00;86083.22;5074405;27;60051;-73
2024/02/04 00:34:23;;;;;;;;;4.00;2.00;;;;;-144.24;100.00;86281.50;5058550;28;65862;-71
2024/02/04 00:36:49;;;;;;;;;2.00;2.00;;;;;-144.24;100.00;86275.44;5061045;28;45438;-71
2024/02/04 00:39:14;;;;;;;;;3.00;1.00;;;;;-144.24;100.00;86700.34;5079843;27;45434;-71
2024/02/04 00:41:39;;;;;;;;;3.33;2.00;;;;;-144.24;100.00;86720.59;5062770;28;50660;-72
2024/02/04 00:44:05;;;;;;;;;2.67;1.00;;;;;-144.24;100.00;86995.78;5083443;22;45487;-72
2024/02/04 00:46:31;;;;;;;;;5.33;2.00;;;;;-144.24;100.00;87206.25;5070179;22;45527;-72
2024/02/04 00:48:56;;;;;;;;;6.00;2.00;;;;;-144.24;100.00;87463.28;5083927;22;46033;-70
2024/02/04 00:51:21;;;;;;;;;2.00;2.00;;;;;-144.24;100.00;87613.03;5075154;27;74295;-71
2024/02/04 00:53:47;;;;;;;;;2.00;2.00;;;;;-144.24;100.00;87845.81;5060405;28;64127;-70
2024/02/04 00:56:12;;;;;;;;;3.33;1.00;;;;;-144.24;100.00;87975.34;5081049;27;64528;-73
2024/02/04 00:58:38;;;;;;;;;2.00;1.00;;;;;-144.24;100.00;87951.06;5080958;27;61542;-70
2024/02/04 01:01:03;;;;;;;;;1.00;1.00;;;;;-144.24;100.00;88262.78;5084236;27;46637;-72
2024/02/04 01:03:30;;;;;;;;;4.00;1.00;;;;;-144.24;100.00;88534.03;5078011;27;45540;-71
2024/02/04 01:05:56;;;;;;;;;2.33;1.33;;;;;-144.24;100.00;88414.59;5086361;27;45470;-71
2024/02/04 01:08:21;;;;;;;;;1.00;1.00;;;;;-144.24;100.00;88586.69;5086501;27;52577;-72
2024/02/04 01:10:47;;;;;;;;;2.00;2.00;;;;;-144.24;100.00;88831.66;5058608;28;45556;-71
2024/02/04 01:13:12;;;;;;;;;1.00;1.00;;;;;-144.24;100.00;88888.34;5078607;27;47599;-71
2024/02/04 01:15:37;;;;;;;;;1.00;1.00;;;;;-144.24;100.00;88886.31;5084659;27;45322;-72
2024/02/04 01:18:03;;;;;;;;;1.00;1.00;;;;;-144.24;100.00;89141.41;5073208;27;57467;-70
2024/02/04 01:20:28;;;;;;;;;2.00;1.67;;;;;-144.24;100.00;89200.13;5078028;27;47661;-70
2024/02/04 01:22:53;;;;;;;;;1.00;1.00;;;;;-144.24;100.00;89380.34;5057044;28;68135;-70
2024/02/04 01:25:19;;;;;;;;;5.00;2.00;;;;;-144.24;100.00;89392.47;5075708;28;58762;-69
2024/02/04 01:27:44;;;;;;;;;0.00;0.00;;;;;-144.24;100.00;89315.53;5075538;28;45449;-70
2024/02/04 01:30:10;;;;;;;;;4.00;1.00;;;;;-144.24;100.00;89402.59;5075300;28;47556;-70
2024/02/04 01:32:35;;;;;;;;;0.00;0.00;;;;;-144.24;100.00;89430.97;5076127;28;45384;-72
2024/02/04 01:35:00;;;;;;;;;2.33;1.67;;;;;-144.24;100.00;89356.03;5076665;27;68024;-70
2024/02/04 01:37:26;;;;;;;;;0.00;0.00;;;;;-144.24;100.00;89337.81;5071691;28;60132;-69
2024/02/04 01:39:51;;;;;;;;;0.67;0.67;;;;;-144.24;100.00;89362.13;5074213;27;68627;-72
2024/02/04 01:42:16;;;;;;;;;1.00;1.00;;;;;-144.24;100.00;89406.66;5074914;28;68375;-70
2024/02/04 01:44:42;;;;;;;;;1.00;0.00;;;;;-144.24;100.00;89362.13;5076202;27;45523;-70
2024/02/04 01:47:07;;;;;;;;;1.67;0.67;;;;;-144.24;100.00;89404.63;5076140;28;45468;-70
2024/02/04 01:49:33;;;;;;;;;1.00;1.00;;;;;-144.24;100.00;89394.50;5078430;27;50988;-71
2024/02/04 01:51:58;;;;;;;;;2.00;1.67;;;;;-144.24;100.00;89289.22;5075462;28;45489;-71
2024/02/04 01:54:25;;;;;;;;;1.00;1.00;;;;;-144.24;100.00;89358.06;5075753;27;69867;-70
2024/02/04 01:56:52;;;;;;;;;0.33;0.33;;;;;-144.24;100.00;89256.81;5060382;28;45596;-72
2024/02/04 01:59:22;;;;;;;;;1.00;1.00;;;;;-144.24;100.00;89230.50;5079372;28;45595;-71
2024/02/04 02:01:47;;;;;;;;;0.67;0.67;;;;;-144.24;100.00;89011.84;5066670;27;45688;-70
2024/02/04 02:04:13;;;;;;;;;1.67;1.00;;;;;-144.24;100.00;89086.75;5080472;27;64810;-70
2024/02/04 02:06:41;;;;;;;;;1.00;1.00;;;;;-144.24;100.00;88914.66;5064127;28;60024;-72
2024/02/04 02:09:10;;;;;;;;;1.00;1.00;;;;;-144.24;100.00;88639.31;5084458;27;46867;-70
2024/02/04 02:11:40;;;;;;;;;3.00;0.00;;;;;-144.24;100.00;88679.81;5062649;28;45422;-70
2024/02/04 02:14:11;;;;;;;;;0.67;0.67;;;;;-144.24;100.00;88641.34;5056666;28;45290;-70
2024/02/04 02:16:37;;;;;;;;;0.33;0.33;;;;;-144.24;100.00;88643.38;5077670;28;45442;-71
2024/02/04 02:19:32;;;;;;;;;2.00;1.00;;;;;-144.24;100.00;88647.41;5076427;27;45448;-70
2024/02/04 02:22:06;;;;;;;;;2.33;1.00;;;;;-144.24;100.00;88598.81;5061001;28;45683;-70
2024/02/04 02:24:40;;;;;;;;;1.00;1.00;;;;;-144.24;100.00;88560.34;5064713;28;45449;-71
2024/02/04 02:27:06;;;;;;;;;3.00;1.00;;;;;-144.24;100.00;88580.59;5059937;27;45410;-71
2024/02/04 02:29:32;;;;;;;;;2.33;1.00;;;;;-144.24;100.00;88503.69;5073169;28;45844;-72
2024/02/04 02:31:59;;;;;;;;;1.67;1.00;;;;;-144.24;100.00;88566.44;5064012;27;45517;-70
2024/02/04 02:34:24;;;;;;;;;0.67;0.67;;;;;-144.24;100.00;88704.09;5084315;27;45530;-72
2024/02/04 02:37:05;;;;;;;;;0.67;0.33;;;;;-144.24;100.00;88546.19;5077974;28;45275;-71
2024/02/04 02:39:45;;;;;;;;;2.67;0.00;;;;;-144.24;100.00;88574.53;5078701;27;45758;-70
2024/02/04 02:42:12;;;;;;;;;2.00;1.67;;;;;-144.24;100.00;88442.94;5086063;27;45480;-71
2024/02/04 02:44:38;;;;;;;;;0.00;0.00;;;;;-144.24;100.00;88392.34;5060420;28;45712;-70
2024/02/04 02:47:05;;;;;;;;;2.00;1.00;;;;;-144.24;100.00;88461.16;5079062;27;45342;-71
2024/02/04 02:49:30;;;;;;;;;3.00;1.00;;;;;-144.24;100.00;88258.72;5062371;28;46128;-70
2024/02/04 02:51:56;;;;;;;;;1.00;1.00;;;;;-144.24;100.00;88238.50;5077892;27;57991;-70
2024/02/04 02:54:21;;;;;;;;;0.33;0.33;;;;;-144.24;100.00;88414.59;5059036;28;47846;-70
2024/02/04 02:56:46;;;;;;;;;1.67;0.67;;;;;-144.24;100.00;88175.75;5080513;27;52353;-70
2024/02/04 02:59:12;;;;;;;;;1.00;0.33;;;;;-144.24;100.00;87932.84;5078453;27;68535;-70
2024/02/04 03:01:40;;;;;;;;;1.33;0.00;;;;;-144.24;100.00;88023.94;5077637;28;45310;-72
2024/02/04 03:04:06;;;;;;;;;1.00;1.00;;;;;-144.24;100.00;87868.06;5078171;28;45540;-70
2024/02/04 03:06:32;;;;;;;;;0.67;0.67;;;;;-144.24;100.00;87878.19;5081902;27;45455;-70
2024/02/04 03:08:57;;;;;;;;;3.00;1.00;;;;;-144.24;100.00;87740.56;5081024;27;71999;-70
2024/02/04 03:11:22;;;;;;;;;0.00;0.00;;;;;-144.24;100.00;87548.28;5084639;27;70088;-70
2024/02/04 03:13:47;;;;;;;;;0.33;0.33;;;;;-144.24;100.00;87509.81;5083095;27;61148;-72
2024/02/04 03:16:13;;;;;;;;;0.00;0.00;;;;;-144.24;100.00;87443.03;5078222;28;45394;-70
2024/02/04 03:18:40;;;;;;;;;2.33;1.00;;;;;-144.24;100.00;87196.13;5072210;28;55715;-71
2024/02/04 03:21:11;;;;;;;;;0.00;0.00;;;;;-144.24;100.00;86935.09;5080334;27;45358;-71
2024/02/04 03:23:37;;;;;;;;;2.33;1.00;;;;;-144.24;100.00;86767.13;5078865;27;45561;-70
2024/02/04 03:26:02;;;;;;;;;0.00;0.00;;;;;-144.24;100.00;86520.25;5082106;27;63712;-70
2024/02/04 03:28:28;;;;;;;;;0.33;0.33;;;;;-144.24;100.00;86530.38;5078667;27;46390;-72
2024/02/04 03:30:53;;;;;;;;;2.00;1.00;;;;;-144.24;100.00;86564.78;5083429;27;60474;-70
2024/02/04 03:33:18;;;;;;;;;0.33;0.00;;;;;-144.24;100.00;86457.53;5076972;27;64220;-71
2024/02/04 03:35:44;;;;;;;;;2.00;0.00;;;;;-144.24;100.00;86360.41;5066824;28;50702;-70
2024/02/04 03:38:09;;;;;;;;;0.33;0.33;;;;;-144.24;100.00;86467.66;5083260;27;67377;-70
2024/02/04 03:40:34;;;;;;;;;0.00;0.00;;;;;-144.24;100.00;86210.69;5077220;28;45418;-70
2024/02/04 03:43:01;;;;;;;;;3.00;0.67;;;;;-144.24;100.00;86267.34;5055930;28;57083;-70
2024/02/04 03:45:26;;;;;;;;;2.00;0.00;;;;;-144.24;100.00;86251.16;5082345;27;45404;-71
2024/02/04 03:47:51;;;;;;;;;1.00;0.67;;;;;-144.24;100.00;86237.00;5076966;27;74655;-72
2024/02/04 03:50:17;;;;;;;;;3.00;0.00;;;;;-144.24;100.00;86164.16;5060376;27;51988;-72
2024/02/04 03:52:43;;;;;;;;;0.67;0.33;;;;;-144.24;100.00;86184.41;5076044;28;56663;-70
2024/02/04 03:55:08;;;;;;;;;3.33;0.33;;;;;-144.24;100.00;86087.28;5059290;28;45352;-70
2024/02/04 03:57:33;;;;;;;;;0.00;0.00;;;;;-144.24;100.00;86030.63;5076579;28;58455;-70
2024/02/04 03:59:59;;;;;;;;;2.00;1.00;;;;;-144.24;100.00;85917.34;5065855;28;45515;-70
2024/02/04 04:02:24;;;;;;;;;0.00;0.00;;;;;-144.24;100.00;85903.19;5082225;27;63353;-73
2024/02/04 04:04:49;;;;;;;;;0.00;0.00;;;;;-144.24;100.00;85840.47;5076809;27;64204;-70
2024/02/04 04:07:15;;;;;;;;;1.00;1.00;;;;;-144.24;100.00;85878.91;5059071;28;65016;-72
2024/02/04 04:09:40;;;;;;;;;2.00;0.00;;;;;-144.24;100.00;85850.56;5058541;28;45289;-70
2024/02/04 04:12:06;;;;;;;;;1.00;0.00;;;;;-144.24;100.00;85961.84;5076825;28;61660;-72
2024/02/04 04:14:31;;;;;;;;;0.33;0.33;;;;;-144.24;100.00;85636.13;5079855;27;45446;-72
2024/02/04 04:16:56;;;;;;;;;1.00;1.00;;;;;-144.24;100.00;85585.56;5074156;27;51291;-70
2024/02/04 04:19:22;;;;;;;;;1.00;1.00;;;;;-144.24;100.00;85375.19;5074435;28;64235;-71
2024/02/04 04:21:47;;;;;;;;;2.00;0.33;;;;;-144.24;100.00;85346.88;5080372;27;45472;-72
2024/02/04 04:24:15;;;;;;;;;0.33;0.33;;;;;-144.24;100.00;85174.94;5079706;27;52697;-72
2024/02/04 04:26:40;;;;;;;;;1.33;0.33;;;;;-144.24;100.00;85116.28;5082575;27;46087;-71
2024/02/04 04:29:06;;;;;;;;;0.00;0.00;;;;;-144.24;100.00;85225.50;5076521;28;46453;-70
2024/02/04 04:31:31;;;;;;;;;1.00;1.00;;;;;-144.24;100.00;85233.59;5058830;28;45426;-70
2024/02/04 04:33:56;;;;;;;;;1.00;1.00;;;;;-144.24;100.00;85132.47;5057483;28;60939;-70
2024/02/04 04:36:22;;;;;;;;;0.00;0.00;;;;;-144.24;100.00;85106.16;5077154;27;45731;-70
2024/02/04 04:38:50;;;;;;;;;0.67;0.67;;;;;-144.24;100.00;84847.25;5058482;28;45440;-71
2024/02/04 04:41:15;;;;;;;;;1.00;1.00;;;;;-144.24;100.00;84926.16;5061592;28;45514;-72
2024/02/04 04:43:41;;;;;;;;;0.00;0.00;;;;;-144.24;100.00;85027.28;5079168;27;45647;-71
2024/02/04 04:46:06;;;;;;;;;0.00;0.00;;;;;-144.24;100.00;85027.28;5075919;28;73098;-70
2024/02/04 04:48:31;;;;;;;;;0.00;0.00;;;;;-144.24;100.00;84932.22;5059597;27;67282;-71
2024/02/04 04:50:56;;;;;;;;;2.00;0.00;;;;;-144.24;100.00;84649.06;5061942;28;59559;-71
2024/02/04 04:53:22;;;;;;;;;2.00;1.00;;;;;-144.24;100.00;84647.03;5072595;27;45604;-70
2024/02/04 04:55:47;;;;;;;;;1.67;1.00;;;;;-144.24;100.00;84614.69;5062179;28;72340;-71
2024/02/04 04:58:12;;;;;;;;;2.00;0.00;;;;;-144.24;100.00;84527.72;5078592;27;45448;-69
2024/02/04 05:00:38;;;;;;;;;0.00;0.00;;;;;-144.24;100.00;84442.78;5080799;27;65252;-70
2024/02/04 05:03:04;;;;;;;;;0.00;0.00;;;;;-144.24;100.00;84359.84;5059958;27;63038;-71
2024/02/04 05:05:29;;;;;;;;;3.33;0.00;;;;;-144.24;100.00;84246.59;5080357;27;45922;-70
2024/02/04 05:07:55;;;;;;;;;0.33;0.33;;;;;-144.24;100.00;84167.75;5057068;28;72647;-70
2024/02/04 05:10:20;;;;;;;;;1.00;0.00;;;;;-144.24;100.00;84040.34;5076103;28;45558;-70
2024/02/04 05:12:45;;;;;;;;;0.00;0.00;;;;;-144.24;100.00;84044.38;5059311;27;46849;-70
2024/02/04 05:15:11;;;;;;;;;0.00;0.00;;;;;-144.24;100.00;84080.78;5078951;27;46353;-70
2024/02/04 05:17:37;;;;;;;;;0.00;0.00;;;;;-144.24;100.00;84014.06;5078335;27;45342;-70
2024/02/04 05:20:03;;;;;;;;;1.33;0.00;;;;;-144.24;100.00;83993.84;5062026;28;45447;-72
2024/02/04 05:22:28;;;;;;;;;2.67;0.00;;;;;-144.24;100.00;84127.28;5077899;27;45521;-70
2024/02/04 05:24:54;;;;;;;;;2.00;1.00;;;;;-144.24;100.00;83884.66;5074804;27;68214;-70
2024/02/04 05:27:19;;;;;;;;;0.00;0.00;;;;;-144.24;100.00;83819.94;5079405;27;45332;-70
2024/02/04 05:29:45;;;;;;;;;0.00;0.00;;;;;-144.24;100.00;83830.03;5078831;27;63180;-70
2024/02/04 05:32:10;;;;;;;;;0.00;0.00;;;;;-144.24;100.00;83658.19;5083314;27;50028;-70
2024/02/04 05:34:37;;;;;;;;;0.00;0.00;;;;;-144.24;100.00;83737.03;5079611;27;45559;-70
2024/02/04 05:37:03;;;;;;;;;2.00;0.67;;;;;-144.24;100.00;83728.94;5060766;28;45421;-70
2024/02/04 05:39:28;;;;;;;;;1.00;1.00;;;;;-144.24;100.00;83633.91;5079734;27;45366;-70
2024/02/04 05:41:53;;;;;;;;;2.00;0.33;;;;;-144.24;100.00;83676.38;5061432;27;63208;-71
2024/02/04 05:44:18;;;;;;;;;0.00;0.00;;;;;-144.24;100.00;83595.50;5060160;28;72182;-72
2024/02/04 05:46:44;;;;;;;;;3.67;1.00;;;;;-144.24;100.00;83536.88;5080871;27;68469;-71
2024/02/04 05:49:09;;;;;;;;;1.00;0.00;;;;;-144.24;100.00;83581.34;5079210;28;45722;-70
2024/02/04 05:51:40;;;;;;;;;0.00;0.00;;;;;-144.24;100.00;83401.41;5075539;27;62823;-71
2024/02/04 05:54:05;;;;;;;;;2.00;0.00;;;;;-144.24;100.00;83181.03;5078708;28;45760;-70
2024/02/04 05:56:31;;;;;;;;;1.00;1.00;;;;;-144.24;100.00;83217.41;5047719;27;45504;-71
2024/02/04 05:58:56;;;;;;;;;2.00;0.00;;;;;-144.24;100.00;83035.47;5084899;27;61636;-73
2024/02/04 06:01:21;;;;;;;;;1.00;1.00;;;;;-144.24;100.00;83081.97;5083356;27;45438;-70
2024/02/04 06:03:46;;;;;;;;;1.00;1.00;;;;;-144.24;100.00;83001.09;5078498;28;65440;-70
2024/02/04 06:06:16;;;;;;;;;0.00;0.00;;;;;-144.24;100.00;82940.44;5066880;28;67149;-71
2024/02/04 06:08:42;;;;;;;;;1.00;0.00;;;;;-144.24;100.00;83083.97;5079031;28;45309;-70
2024/02/04 06:11:11;;;;;;;;;0.00;0.00;;;;;-144.24;100.00;83086.00;5060868;28;45633;-70
2024/02/04 06:13:38;;;;;;;;;0.67;0.67;;;;;-144.24;100.00;83009.19;5078032;28;45893;-71
2024/02/04 06:16:04;;;;;;;;;0.00;0.00;;;;;-144.24;100.00;82780.75;5060451;28;45506;-72
2024/02/04 06:18:29;;;;;;;;;0.00;0.00;;;;;-144.24;100.00;82875.75;5079194;28;45262;-70
2024/02/04 06:20:55;;;;;;;;;2.00;0.00;;;;;-144.24;100.00;82982.91;5078990;27;45209;-71
2024/02/04 06:23:20;;;;;;;;;0.00;0.00;;;;;-144.24;100.00;82839.38;5060066;28;72208;-71
2024/02/04 06:25:45;;;;;;;;;0.00;0.00;;;;;-144.24;100.00;82873.72;5076101;27;69296;-70
2024/02/04 06:28:11;;;;;;;;;0.00;0.00;;;;;-144.24;100.00;82794.91;5084103;27;53313;-70
2024/02/04 06:30:36;;;;;;;;;0.00;0.00;;;;;-144.24;100.00;82881.81;5079196;28;45482;-70
2024/02/04 06:33:02;;;;;;;;;0.00;0.00;;;;;-144.24;100.00;82734.25;5059737;28;68810;-70
2024/02/04 06:35:28;;;;;;;;;0.00;0.00;;;;;-144.24;100.00;82790.84;5190903;22;46704;-70
2024/02/04 06:37:53;;;;;;;;;0.00;0.00;;;;;-144.24;100.00;82707.97;5099012;27;45229;-71
2024/02/04 06:40:18;;;;;;;;;1.00;0.00;;;;;-144.24;100.00;82655.41;5097533;27;64498;-71
2024/02/04 06:42:44;;;;;;;;;0.00;0.00;;;;;-144.24;100.00;82590.72;5097868;27;54948;-71
2024/02/04 06:45:09;;;;;;;;;0.00;0.00;;;;;-144.24;100.00;82493.69;5098213;27;45455;-70
2024/02/04 06:47:35;;;;;;;;;0.33;0.00;;;;;-144.24;100.00;82562.44;5080277;27;45820;-70
2024/02/04 06:50:03;;;;;;;;;1.33;0.00;;;;;-144.24;100.00;82429.03;5097872;27;65715;-70
2024/02/04 06:52:28;;;;;;;;;1.33;0.00;;;;;-144.24;100.00;82285.50;5091720;27;45830;-70
2024/02/04 06:54:53;;;;;;;;;0.00;0.00;;;;;-144.24;100.00;82247.09;5096659;27;45749;-71
2024/02/04 06:57:19;;;;;;;;;0.00;0.00;;;;;-144.24;100.00;82053.06;5097865;27;51105;-71
2024/02/04 06:59:44;;;;;;;;;0.00;0.00;;;;;-144.24;100.00;82162.22;5097514;27;60632;-71
2024/02/04 07:02:09;;;;;;;;;0.00;0.00;;;;;-144.24;100.00;82123.81;5097353;27;72556;-72
2024/02/04 07:04:35;;;;;;;;;0.00;0.00;;;;;-144.24;100.00;81970.19;5097627;27;60133;-70
2024/02/04 07:07:00;;;;;;;;;1.00;0.00;;;;;-144.24;100.00;81931.81;5097927;27;56643;-70
2024/02/04 07:09:25;;;;;;;;;0.00;0.00;;;;;-144.24;100.00;81790.31;5094619;27;65701;-70
2024/02/04 07:11:51;;;;;;;;;0.00;0.00;;;;;-144.24;100.00;81800.44;5079448;27;48164;-70
2024/02/04 07:14:16;;;;;;;;;1.00;0.00;;;;;-144.24;100.00;81697.34;5079520;27;45432;-71
2024/02/04 07:16:42;;;;;;;;;0.00;0.00;;;;;-144.24;100.00;81596.31;5093763;27;59571;-71
2024/02/04 07:19:07;;;;;;;;;0.00;0.00;;;;;-144.24;100.00;81598.34;5097951;27;45589;-70
2024/02/04 07:21:33;;;;;;;;;0.00;0.00;;;;;-144.24;100.00;81681.19;5098003;27;45541;-71
2024/02/04 07:23:58;;;;;;;;;0.00;0.00;;;;;-144.24;100.00;81584.19;5096879;27;64087;-70
2024/02/04 07:26:23;;;;;;;;;0.00;0.00;;;;;-144.24;100.00;81634.72;5078718;27;66768;-71
2024/02/04 07:28:49;;;;;;;;;0.00;0.00;;;;;-144.24;100.00;81598.34;5079336;27;56318;-71
2024/02/04 07:31:15;;;;;;;;;0.00;0.00;;;;;-144.24;100.00;81608.44;5097426;27;45959;-71
2024/02/04 07:33:40;;;;;;;;;0.00;0.00;;;;;-144.24;100.00;81489.19;5097761;27;48820;-71
2024/02/04 07:36:06;;;;;;;;;1.00;0.00;;;;;-144.24;100.00;81555.91;5096109;27;61780;-72
2024/02/04 07:38:31;;;;;;;;;0.00;0.00;;;;;-144.24;100.00;81450.81;5097314;27;45343;-70
2024/02/04 07:40:58;;;;;;;;;0.67;0.67;;;;;-144.24;100.00;81481.13;5096358;27;73854;-71
2024/02/04 07:43:24;;;;;;;;;0.00;0.00;;;;;-144.24;100.00;81337.66;5079418;27;45528;-71
2024/02/04 07:45:49;;;;;;;;;0.00;0.00;;;;;-144.24;100.00;81400.28;5097722;27;45441;-71
2024/02/04 07:48:14;;;;;;;;;0.00;0.00;;;;;-144.24;100.00;81359.88;5092445;27;62847;-73
2024/02/04 07:50:40;;;;;;;;;0.00;0.00;;;;;-144.24;100.00;81311.38;5096256;27;65881;-71
2024/02/04 07:53:05;;;;;;;;;1.33;0.33;;;;;-144.24;100.00;81264.91;5076319;27;58118;-72
2024/02/04 07:55:30;;;;;;;;;2.00;0.67;;;;;-144.24;100.00;81186.09;5074409;27;61391;-73
2024/02/04 07:57:56;;;;;;;;;0.00;0.00;;;;;-144.24;100.00;81149.72;5096506;27;54340;-72
2024/02/04 08:00:21;;;;;;;;;2.00;0.00;;;;;-144.24;100.00;81173.97;5094458;27;73684;-70
2024/02/04 08:02:46;;;;;;;;;3.00;0.00;;;;;-144.24;100.00;81378.06;5094683;27;70774;-73
2024/02/04 08:05:12;;;;;;;;;0.00;0.00;;;;;-144.24;100.00;81062.81;5096043;27;45498;-71
2024/02/04 08:07:38;;;;;;;;;0.00;0.00;;;;;-144.24;100.00;81287.13;5077307;27;45371;-73
2024/02/04 08:10:03;;;;;;;;;0.00;0.00;;;;;-144.24;100.00;81143.66;5096120;27;52270;-73
2024/02/04 08:12:29;;;;;;;;;0.00;0.00;;;;;-144.24;100.00;81085.06;5077665;27;45560;-72
2024/02/04 08:14:54;;;;;;;;;0.00;0.00;;;;;-144.24;100.00;80883.00;5093509;27;63583;-72
2024/02/04 08:17:19;;;;;;;;;1.00;1.00;;;;;-144.24;100.00;80951.69;5094964;27;51809;-72
2024/02/04 08:19:45;;;;;;;;;2.33;1.00;;;;;-144.24;100.00;80864.81;5057633;27;47490;-73
2024/02/04 08:22:10;;;;;;;;;1.00;1.00;;;;;-144.24;100.00;80957.75;5075426;27;45489;-72
2024/02/04 08:24:36;;;;;;;;;4.67;2.67;;;;;-144.24;100.00;80909.25;5095223;27;45557;-72
2024/02/04 08:27:01;;;;;;;;;3.00;2.00;;;;;-144.24;100.00;80632.44;5096466;27;45259;-72
2024/02/04 08:29:27;;;;;;;;;4.00;1.00;;;;;-144.24;100.00;80737.50;5076782;27;65600;-71
2024/02/04 08:31:52;;;;;;;;;2.00;0.67;;;;;-144.24;100.00;80594.06;5096032;27;56851;-71
2024/02/04 08:34:20;;;;;;;;;1.00;1.00;;;;;-144.24;100.00;80458.69;5077720;27;45621;-71
2024/02/04 08:36:45;;;;;;;;;3.00;1.00;;;;;-144.24;100.00;80466.78;5095113;27;45471;-72
2024/02/04 08:39:11;;;;;;;;;2.00;0.33;;;;;-144.24;100.00;80408.19;5091846;27;46321;-69
2024/02/04 08:41:36;;;;;;;;;1.67;1.33;;;;;-144.24;100.00;80476.88;5091086;27;45541;-72
2024/02/04 08:44:01;;;;;;;;;1.33;1.33;;;;;-144.24;100.00;80387.97;5067690;27;45367;-72
2024/02/04 08:46:27;;;;;;;;;3.00;1.00;;;;;-144.24;100.00;80238.47;5093811;27;46492;-71
2024/02/04 08:48:52;;;;;;;;;1.67;1.00;;;;;-144.24;100.00;80208.19;5067346;27;45827;-74
2024/02/04 08:51:19;;;;;;;;;1.00;1.00;;;;;-144.24;100.00;80228.38;5082739;27;56668;-73
2024/02/04 08:53:44;;;;;;;;;1.00;1.00;;;;;-144.24;100.00;80143.53;5086743;27;45749;-74
2024/02/04 08:56:10;;;;;;;;;1.00;0.00;;;;;-144.24;100.00;79994.03;5067909;27;66494;-74
2024/02/04 08:58:37;;;;;;;;;0.00;0.00;;;;;-144.24;100.00;80072.81;5085760;27;64761;-75
2024/02/04 09:01:03;;;;;;;;;2.00;0.33;;;;;-144.24;100.00;79899.09;5084301;27;45482;-73
2024/02/04 09:03:29;;;;;;;;;0.00;0.00;;;;;-144.24;100.00;80026.38;5094567;27;45531;-71
2024/02/04 09:05:54;;;;;;;;;1.00;0.00;;;;;-144.24;100.00;79856.69;5094190;27;45740;-71
2024/02/04 09:08:20;;;;;;;;;0.00;0.00;;;;;-144.24;100.00;79689.03;5084159;27;45742;-71
2024/02/04 09:10:45;;;;;;;;;1.00;0.00;;;;;-144.24;100.00;79769.81;5095989;27;45427;-73
2024/02/04 09:13:10;;;;;;;;;0.00;0.00;;;;;-144.24;100.00;79559.75;5095883;27;63583;-72
2024/02/04 09:15:36;;;;;;;;;1.33;0.00;;;;;-144.24;100.00;79583.97;5095255;27;45529;-72
2024/02/04 09:18:01;;;;;;;;;0.00;0.00;;;;;-144.24;100.00;79616.31;5093092;27;70317;-72
2024/02/04 09:20:26;;;;;;;;;0.00;0.00;;;;;-144.24;100.00;79412.28;5073023;27;67005;-70
2024/02/04 09:22:52;;;;;;;;;0.00;0.00;;;;;-144.24;100.00;79636.50;5089929;27;65657;-70
2024/02/04 09:25:17;;;;;;;;;1.00;0.00;;;;;-144.24;100.00;79802.13;5095737;27;45526;-70
2024/02/04 09:27:42;;;;;;;;;0.00;0.00;;;;;-144.24;100.00;79743.56;5093974;27;72224;-71
2024/02/04 09:30:08;;;;;;;;;0.00;0.00;;;;;-144.24;100.00;79893.03;5093054;27;70715;-73
2024/02/04 09:32:34;;;;;;;;;0.00;0.00;;;;;-144.24;100.00;80234.44;5095594;27;45323;-70
2024/02/04 09:34:59;;;;;;;;;0.00;0.00;;;;;-144.24;100.00;80458.69;5090292;27;45472;-70
2024/02/04 09:37:24;;;;;;;;;1.00;1.00;;;;;-144.24;100.00;80537.50;5093730;27;50867;-72
2024/02/04 09:39:50;;;;;;;;;1.00;0.00;;;;;-144.24;100.00;80828.44;5088349;27;66376;-73
2024/02/04 09:42:20;;;;;;;;;0.00;0.00;;;;;-144.24;100.00;80753.69;5089574;27;45546;-71
2024/02/04 09:44:47;;;;;;;;;1.00;0.00;;;;;-144.24;100.00;80961.78;5072848;27;45475;-72
2024/02/04 09:47:13;;;;;;;;;0.00;0.00;;;;;-144.24;100.00;80824.41;5076203;27;46890;-70
2024/02/04 09:49:39;;;;;;;;;0.00;0.00;;;;;-144.24;100.00;80895.13;5084145;27;68049;-71
2024/02/04 09:52:07;;;;;;;;;0.00;0.00;;;;;-144.24;100.00;80903.19;5088184;27;45614;-70
2024/02/04 09:54:34;;;;;;;;;0.00;0.00;;;;;-144.24;100.00;81517.50;5091497;27;45645;-70
2024/02/04 09:57:00;;;;;;;;;1.00;0.00;;;;;-144.24;100.00;81291.16;5090025;27;45531;-70
2024/02/04 09:59:25;;;;;;;;;0.00;0.00;;;;;-144.24;100.00;81323.50;5074892;27;68829;-70
2024/02/04 10:01:51;;;;;;;;;2.00;0.33;;;;;-144.24;100.00;81367.94;5071864;27;58324;-70
2024/02/04 10:04:16;;;;;;;;;0.00;0.00;;;;;-144.24;100.00;81430.59;5075600;27;45584;-70
2024/02/04 10:06:41;;;;;;;;;0.00;0.00;;;;;-144.24;100.00;81444.75;5088352;27;66484;-72
2024/02/04 10:09:06;;;;;;;;;0.00;0.00;;;;;-144.24;100.00;81129.50;5087085;27;69399;-74
2024/02/04 10:11:32;;;;;;;;;0.00;0.00;;;;;-144.24;100.00;81074.94;5085570;27;59347;-73
2024/02/04 10:13:57;;;;;;;;;0.00;0.00;;;;;-144.24;100.00;80905.22;5083439;27;63423;-73
2024/02/04 10:16:23;;;;;;;;;0.00;0.00;;;;;-144.24;100.00;80953.72;5086991;27;45992;-72
2024/02/04 10:18:53;;;;;;;;;0.00;0.00;;;;;-144.24;100.00;80923.41;5090735;27;45403;-72
2024/02/04 10:21:20;;;;;;;;;0.00;0.00;;;;;-144.24;100.00;80984.03;5085883;27;45439;-70
2024/02/04 10:23:49;;;;;;;;;1.00;0.00;;;;;-144.24;100.00;80887.03;5069727;27;45489;-72
2024/02/04 10:26:16;;;;;;;;;0.00;0.00;;;;;-144.24;100.00;81014.31;5075479;27;45554;-72
2024/02/04 10:28:41;;;;;;;;;0.00;0.00;;;;;-144.24;100.00;80840.56;5088845;27;45442;-72
2024/02/04 10:31:10;;;;;;;;;1.00;0.00;;;;;-144.24;100.00;80848.66;5093487;27;45453;-74
2024/02/04 10:33:36;;;;;;;;;0.00;0.00;;;;;-144.24;100.00;80761.75;5079475;27;45401;-73
2024/02/04 10:36:03;;;;;;;;;0.00;0.00;;;;;-144.24;100.00;80810.25;5063540;27;47936;-72
2024/02/04 10:38:28;;;;;;;;;0.00;0.00;;;;;-144.24;100.00;80701.16;5093259;27;45399;-72
2024/02/04 10:40:54;;;;;;;;;0.00;0.00;;;;;-144.24;100.00;80798.13;5091192;27;63375;-72
2024/02/04 10:43:20;;;;;;;;;0.00;0.00;;;;;-144.24;100.00;80820.34;5096098;27;60050;-73
2024/02/04 10:45:47;;;;;;;;;0.67;0.67;;;;;-144.24;100.00;80844.59;5079609;27;46320;-73
2024/02/04 10:48:15;;;;;;;;;0.00;0.00;;;;;-144.24;100.00;80804.19;5098328;27;45446;-73
2024/02/04 10:50:41;;;;;;;;;0.00;0.00;;;;;-144.24;100.00;80719.31;5097431;27;45497;-75
2024/02/04 10:53:10;;;;;;;;;0.00;0.00;;;;;-144.24;100.00;80709.22;5097872;27;57779;-73
2024/02/04 10:55:41;;;;;;;;;0.00;0.00;;;;;-144.24;100.00;80824.41;5060975;27;62191;-72
2024/02/04 10:58:07;;;;;;;;;0.33;0.00;;;;;-144.24;100.00;80996.16;5093796;27;45376;-73
2024/02/04 11:00:33;;;;;;;;;0.00;0.00;;;;;-144.24;100.00;80876.94;5079433;27;54346;-72
2024/02/04 11:02:59;;;;;;;;;0.00;0.00;;;;;-144.24;100.00;81034.53;5062751;27;47661;-74